sensor_id;sensor_type;location;lat;lon;timestamp;pressure;altitude;pressure_sealevel;temperature;humidity
36234;BME280;43467;50.890;5.982;2023-09-07T00:00:12;100497.84;;;23.27;56.49
36234;BME280;43467;50.890;5.982;2023-09-07T00:02:38;100490.91;;;23.05;57.75
36234;BME280;43467;50.890;5.982;2023-09-07T00:05:04;100485.34;;;23.07;57.16
36234;BME280;43467;50.890;5.982;2023-09-07T00:07:31;100478.84;;;22.90;58.12
36234;BME280;43467;50.890;5.982;2023-09-07T00:09:56;100471.59;;;22.91;57.52
36234;BME280;43467;50.890;5.982;2023-09-07T00:12:22;100473.59;;;22.98;57.35
36234;BME280;43467;50.890;5.982;2023-09-07T00:14:48;100473.13;;;23.03;57.33
36234;BME280;43467;50.890;5.982;2023-09-07T00:17:13;100466.91;;;22.93;57.14
36234;BME280;43467;50.890;5.982;2023-09-07T00:19:39;100470.59;;;22.92;56.48
36234;BME280;43467;50.890;5.982;2023-09-07T00:22:05;100462.91;;;22.87;56.59
36234;BME280;43467;50.890;5.982;2023-09-07T00:24:31;100470.63;;;22.82;56.63
36234;BME280;43467;50.890;5.982;2023-09-07T00:26:57;100462.22;;;22.85;56.51
36234;BME280;43467;50.890;5.982;2023-09-07T00:29:22;100459.66;;;22.84;56.72
36234;BME280;43467;50.890;5.982;2023-09-07T00:31:48;100453.41;;;22.83;56.20
36234;BME280;43467;50.890;5.982;2023-09-07T00:34:13;100461.50;;;22.83;56.35
36234;BME280;43467;50.890;5.982;2023-09-07T00:36:39;100460.50;;;22.84;56.06
36234;BME280;43467;50.890;5.982;2023-09-07T00:39:04;100459.66;;;22.84;56.13
36234;BME280;43467;50.890;5.982;2023-09-07T00:41:30;100461.53;;;22.74;56.55
36234;BME280;43467;50.890;5.982;2023-09-07T00:43:55;100454.41;;;22.73;56.28
36234;BME280;43467;50.890;5.982;2023-09-07T00:46:21;100443.91;;;22.69;56.72
36234;BME280;43467;50.890;5.982;2023-09-07T00:48:48;100449.72;;;22.75;56.12
36234;BME280;43467;50.890;5.982;2023-09-07T00:51:13;100453.13;;;22.77;56.00
36234;BME280;43467;50.890;5.982;2023-09-07T00:53:39;100452.41;;;22.75;56.43
36234;BME280;43467;50.890;5.982;2023-09-07T00:56:06;100457.50;;;22.68;56.20
36234;BME280;43467;50.890;5.982;2023-09-07T00:58:32;100453.66;;;22.61;56.73
36234;BME280;43467;50.890;5.982;2023-09-07T01:00:59;100438.75;;;22.57;56.71
36234;BME280;43467;50.890;5.982;2023-09-07T01:03:24;100452.81;;;22.60;56.61
36234;BME280;43467;50.890;5.982;2023-09-07T01:06:12;100441.44;;;22.57;56.30
36234;BME280;43467;50.890;5.982;2023-09-07T01:08:49;100442.56;;;22.54;56.06
36234;BME280;43467;50.890;5.982;2023-09-07T01:11:18;100431.78;;;22.45;56.58
36234;BME280;43467;50.890;5.982;2023-09-07T01:13:46;100442.00;;;22.51;55.96
36234;BME280;43467;50.890;5.982;2023-09-07T01:16:12;100440.28;;;22.50;56.25
36234;BME280;43467;50.890;5.982;2023-09-07T01:18:39;100436.16;;;22.46;56.41
36234;BME280;43467;50.890;5.982;2023-09-07T01:21:06;100433.47;;;22.46;56.22
36234;BME280;43467;50.890;5.982;2023-09-07T01:23:37;100420.44;;;22.41;56.52
36234;BME280;43467;50.890;5.982;2023-09-07T01:26:06;100428.09;;;22.36;56.93
36234;BME280;43467;50.890;5.982;2023-09-07T01:28:32;100423.13;;;22.41;56.90
36234;BME280;43467;50.890;5.982;2023-09-07T01:30:57;100427.38;;;22.44;56.63
36234;BME280;43467;50.890;5.982;2023-09-07T01:33:23;100418.56;;;22.42;57.13
36234;BME280;43467;50.890;5.982;2023-09-07T01:35:48;100425.38;;;22.36;56.44
36234;BME280;43467;50.890;5.982;2023-09-07T01:38:14;100424.53;;;22.36;56.15
36234;BME280;43467;50.890;5.982;2023-09-07T01:40:39;100430.22;;;22.33;55.98
36234;BME280;43467;50.890;5.982;2023-09-07T01:43:05;100426.25;;;22.37;55.60
36234;BME280;43467;50.890;5.982;2023-09-07T01:45:30;100426.25;;;22.37;55.35
36234;BME280;43467;50.890;5.982;2023-09-07T01:47:56;100422.13;;;22.33;55.46
36234;BME280;43467;50.890;5.982;2023-09-07T01:50:21;100417.84;;;22.40;55.75
36234;BME280;43467;50.890;5.982;2023-09-07T01:52:49;100423.94;;;22.42;55.96
36234;BME280;43467;50.890;5.982;2023-09-07T01:55:15;100423.81;;;22.43;56.19
36234;BME280;43467;50.890;5.982;2023-09-07T01:57:40;100416.03;;;22.40;56.57
36234;BME280;43467;50.890;5.982;2023-09-07T02:00:06;100423.81;;;22.43;56.16
36234;BME280;43467;50.890;5.982;2023-09-07T02:02:32;100422.69;;;22.36;56.46
36234;BME280;43467;50.890;5.982;2023-09-07T02:04:58;100426.09;;;22.38;56.20
36234;BME280;43467;50.890;5.982;2023-09-07T02:07:23;100422.13;;;22.33;56.24
36234;BME280;43467;50.890;5.982;2023-09-07T02:09:48;100414.44;;;22.28;56.47
36234;BME280;43467;50.890;5.982;2023-09-07T02:12:14;100424.25;;;22.29;56.37
36234;BME280;43467;50.890;5.982;2023-09-07T02:14:40;100426.09;;;22.29;56.68
36234;BME280;43467;50.890;5.982;2023-09-07T02:17:05;100423.97;;;22.32;56.16
36234;BME280;43467;50.890;5.982;2023-09-07T02:19:31;100426.50;;;22.34;56.16
36234;BME280;43467;50.890;5.982;2023-09-07T02:21:56;100414.41;;;22.18;56.16
36234;BME280;43467;50.890;5.982;2023-09-07T02:24:22;100431.47;;;22.19;56.54
36234;BME280;43467;50.890;5.982;2023-09-07T02:26:47;100422.22;;;22.21;56.51
36234;BME280;43467;50.890;5.982;2023-09-07T02:29:13;100421.41;;;22.21;56.82
36234;BME280;43467;50.890;5.982;2023-09-07T02:31:41;100417.41;;;22.15;57.04
36234;BME280;43467;50.890;5.982;2023-09-07T02:34:07;100435.72;;;22.21;57.17
36234;BME280;43467;50.890;5.982;2023-09-07T02:36:33;100431.91;;;22.24;56.96
36234;BME280;43467;50.890;5.982;2023-09-07T02:38:59;100436.00;;;22.18;57.59
36234;BME280;43467;50.890;5.982;2023-09-07T02:41:25;100433.47;;;22.17;57.71
36234;BME280;43467;50.890;5.982;2023-09-07T02:43:51;100434.44;;;22.16;57.45
36234;BME280;43467;50.890;5.982;2023-09-07T02:46:16;100426.03;;;22.09;57.62
36234;BME280;43467;50.890;5.982;2023-09-07T02:48:42;100433.31;;;22.09;58.04
36234;BME280;43467;50.890;5.982;2023-09-07T02:51:07;100430.25;;;21.93;58.08
36234;BME280;43467;50.890;5.982;2023-09-07T02:53:33;100412.31;;;21.82;58.23
36234;BME280;43467;50.890;5.982;2023-09-07T02:55:58;100419.28;;;21.85;58.07
36234;BME280;43467;50.890;5.982;2023-09-07T02:58:27;100428.09;;;21.87;58.03
36234;BME280;43467;50.890;5.982;2023-09-07T03:00:52;100429.47;;;21.81;58.33
36234;BME280;43467;50.890;5.982;2023-09-07T03:03:18;100425.09;;;21.80;58.44
36234;BME280;43467;50.890;5.982;2023-09-07T03:05:43;100417.84;;;21.80;58.32
36234;BME280;43467;50.890;5.982;2023-09-07T03:08:10;100415.41;;;21.68;59.19
36234;BME280;43467;50.890;5.982;2023-09-07T03:10:36;100412.97;;;21.65;58.73
36234;BME280;43467;50.890;5.982;2023-09-07T03:13:03;100413.75;;;21.46;59.58
36234;BME280;43467;50.890;5.982;2023-09-07T03:15:29;100416.31;;;21.48;59.40
36234;BME280;43467;50.890;5.982;2023-09-07T03:17:54;100416.72;;;21.43;59.98
36234;BME280;43467;50.890;5.982;2023-09-07T03:20:19;100410.59;;;21.41;60.14
36234;BME280;43467;50.890;5.982;2023-09-07T03:22:45;100413.28;;;21.41;59.58
36234;BME280;43467;50.890;5.982;2023-09-07T03:25:11;100412.44;;;21.41;60.04
36234;BME280;43467;50.890;5.982;2023-09-07T03:27:37;100407.22;;;21.39;60.01
36234;BME280;43467;50.890;5.982;2023-09-07T03:30:03;100408.72;;;21.32;59.95
36234;BME280;43467;50.890;5.982;2023-09-07T03:32:29;100410.41;;;21.33;60.31
36234;BME280;43467;50.890;5.982;2023-09-07T03:35:02;100404.06;;;21.34;59.51
36234;BME280;43467;50.890;5.982;2023-09-07T03:37:28;100405.63;;;21.37;59.77
36234;BME280;43467;50.890;5.982;2023-09-07T03:39:54;100405.50;;;21.38;59.67
36234;BME280;43467;50.890;5.982;2023-09-07T03:42:20;100406.63;;;21.36;59.52
36234;BME280;43467;50.890;5.982;2023-09-07T03:44:45;100406.47;;;21.37;58.98
36234;BME280;43467;50.890;5.982;2023-09-07T03:47:13;100412.25;;;21.32;59.61
36234;BME280;43467;50.890;5.982;2023-09-07T03:49:39;100408.72;;;21.32;59.09
36234;BME280;43467;50.890;5.982;2023-09-07T03:52:04;100417.66;;;21.32;59.10
36234;BME280;43467;50.890;5.982;2023-09-07T03:54:30;100406.16;;;21.30;59.17
36234;BME280;43467;50.890;5.982;2023-09-07T03:56:59;100397.81;;;21.33;58.55
36234;BME280;43467;50.890;5.982;2023-09-07T03:59:27;100400.63;;;21.32;58.98
36234;BME280;43467;50.890;5.982;2023-09-07T04:01:52;100407.72;;;21.33;58.67
36234;BME280;43467;50.890;5.982;2023-09-07T04:04:20;100410.53;;;21.31;58.66
36234;BME280;43467;50.890;5.982;2023-09-07T04:06:46;100410.03;;;21.38;58.82
36234;BME280;43467;50.890;5.982;2023-09-07T04:09:13;100408.31;;;21.37;58.31
36234;BME280;43467;50.890;5.982;2023-09-07T04:11:38;100416.53;;;21.35;58.42
36234;BME280;43467;50.890;5.982;2023-09-07T04:14:03;100409.44;;;21.34;58.91
36234;BME280;43467;50.890;5.982;2023-09-07T04:16:29;100409.38;;;21.24;58.88
36234;BME280;43467;50.890;5.982;2023-09-07T04:18:54;100402.56;;;21.20;59.19
36234;BME280;43467;50.890;5.982;2023-09-07T04:21:19;100412.22;;;21.23;59.38
36234;BME280;43467;50.890;5.982;2023-09-07T04:23:46;100403.81;;;21.16;59.17
36234;BME280;43467;50.890;5.982;2023-09-07T04:26:12;100409.34;;;21.15;59.55
36234;BME280;43467;50.890;5.982;2023-09-07T04:28:38;100404.19;;;21.12;59.84
36234;BME280;43467;50.890;5.982;2023-09-07T04:31:06;100402.50;;;21.11;59.96
36234;BME280;43467;50.890;5.982;2023-09-07T04:33:32;100410.09;;;21.06;60.17
36234;BME280;43467;50.890;5.982;2023-09-07T04:36:14;100405.69;;;21.05;60.37
36234;BME280;43467;50.890;5.982;2023-09-07T04:38:40;100412.44;;;20.99;60.50
36234;BME280;43467;50.890;5.982;2023-09-07T04:41:10;100417.25;;;20.96;60.47
36234;BME280;43467;50.890;5.982;2023-09-07T04:43:36;100409.56;;;20.91;60.93
36234;BME280;43467;50.890;5.982;2023-09-07T04:46:02;100412.25;;;20.91;60.59
36234;BME280;43467;50.890;5.982;2023-09-07T04:48:28;100413.84;;;20.94;60.78
36234;BME280;43467;50.890;5.982;2023-09-07T04:51:08;100407.59;;;20.93;60.74
36234;BME280;43467;50.890;5.982;2023-09-07T04:53:36;100412.88;;;20.95;59.80
36234;BME280;43467;50.890;5.982;2023-09-07T04:56:02;100420.22;;;20.93;60.59
36234;BME280;43467;50.890;5.982;2023-09-07T04:58:28;100416.63;;;20.82;60.50
36234;BME280;43467;50.890;5.982;2023-09-07T05:00:54;100424.22;;;20.77;61.15
36234;BME280;43467;50.890;5.982;2023-09-07T05:03:19;100418.44;;;20.82;60.59
36234;BME280;43467;50.890;5.982;2023-09-07T05:05:50;100422.00;;;20.82;61.32
36234;BME280;43467;50.890;5.982;2023-09-07T05:08:16;100416.41;;;20.74;60.89
36234;BME280;43467;50.890;5.982;2023-09-07T05:10:42;100419.50;;;20.70;61.30
36234;BME280;43467;50.890;5.982;2023-09-07T05:13:07;100415.94;;;20.69;61.48
36234;BME280;43467;50.890;5.982;2023-09-07T05:15:33;100421.31;;;20.69;61.37
36234;BME280;43467;50.890;5.982;2023-09-07T05:17:58;100418.66;;;20.58;62.08
36234;BME280;43467;50.890;5.982;2023-09-07T05:20:24;100422.09;;;20.60;61.80
36234;BME280;43467;50.890;5.982;2023-09-07T05:22:49;100423.25;;;20.47;61.91
36234;BME280;43467;50.890;5.982;2023-09-07T05:25:16;100438.88;;;20.53;61.73
36234;BME280;43467;50.890;5.982;2023-09-07T05:27:41;100431.78;;;20.52;61.52
36234;BME280;43467;50.890;5.982;2023-09-07T05:30:07;100437.66;;;20.57;61.74
36234;BME280;43467;50.890;5.982;2023-09-07T05:32:32;100428.63;;;20.47;61.95
36234;BME280;43467;50.890;5.982;2023-09-07T05:34:58;100445.72;;;20.57;61.26
36234;BME280;43467;50.890;5.982;2023-09-07T05:37:23;100440.81;;;20.62;61.58
36234;BME280;43467;50.890;5.982;2023-09-07T05:39:49;100446.63;;;20.67;61.57
36234;BME280;43467;50.890;5.982;2023-09-07T05:42:15;100449.81;;;20.72;60.89
36234;BME280;43467;50.890;5.982;2023-09-07T05:44:40;100450.38;;;20.75;60.69
36234;BME280;43467;50.890;5.982;2023-09-07T05:47:06;100451.63;;;20.71;60.99
36234;BME280;43467;50.890;5.982;2023-09-07T05:49:31;100457.22;;;20.79;61.12
36234;BME280;43467;50.890;5.982;2023-09-07T05:51:57;100452.69;;;20.80;61.08
36234;BME280;43467;50.890;5.982;2023-09-07T05:54:22;100452.44;;;20.83;61.03
36234;BME280;43467;50.890;5.982;2023-09-07T05:56:48;100455.84;;;20.85;60.72
36234;BME280;43467;50.890;5.982;2023-09-07T05:59:13;100453.88;;;20.87;60.74
36234;BME280;43467;50.890;5.982;2023-09-07T06:01:39;100468.66;;;20.93;60.50
36234;BME280;43467;50.890;5.982;2023-09-07T06:04:06;100465.69;;;20.96;60.41
36234;BME280;43467;50.890;5.982;2023-09-07T06:06:31;100472.81;;;20.97;60.83
36234;BME280;43467;50.890;5.982;2023-09-07T06:08:57;100472.69;;;20.98;61.03
36234;BME280;43467;50.890;5.982;2023-09-07T06:11:24;100463.75;;;20.98;61.08
36234;BME280;43467;50.890;5.982;2023-09-07T06:13:50;100465.91;;;21.04;60.67
36234;BME280;43467;50.890;5.982;2023-09-07T06:16:15;100473.13;;;21.14;60.38
36234;BME280;43467;50.890;5.982;2023-09-07T06:18:41;100467.72;;;21.14;60.32
36234;BME280;43467;50.890;5.982;2023-09-07T06:21:06;100477.25;;;21.18;60.18
36234;BME280;43467;50.890;5.982;2023-09-07T06:23:32;100474.41;;;21.20;59.82
36234;BME280;43467;50.890;5.982;2023-09-07T06:25:57;100483.69;;;21.27;59.53
36234;BME280;43467;50.890;5.982;2023-09-07T06:28:23;100482.69;;;21.28;59.95
36234;BME280;43467;50.890;5.982;2023-09-07T06:30:48;100478.81;;;21.21;59.53
36234;BME280;43467;50.890;5.982;2023-09-07T06:33:13;100490.75;;;21.28;60.06
36234;BME280;43467;50.890;5.982;2023-09-07T06:35:39;100491.63;;;21.28;59.51
36234;BME280;43467;50.890;5.982;2023-09-07T06:38:04;100500.28;;;21.32;59.49
36234;BME280;43467;50.890;5.982;2023-09-07T06:40:30;100495.75;;;21.32;59.15
36234;BME280;43467;50.890;5.982;2023-09-07T06:42:55;100499.56;;;21.30;59.53
36234;BME280;43467;50.890;5.982;2023-09-07T06:45:22;100501.53;;;21.28;59.86
36234;BME280;43467;50.890;5.982;2023-09-07T06:47:49;100484.50;;;21.27;59.61
36234;BME280;43467;50.890;5.982;2023-09-07T06:50:15;100501.03;;;21.34;59.79
36234;BME280;43467;50.890;5.982;2023-09-07T06:52:41;100499.88;;;21.37;59.64
36234;BME280;43467;50.890;5.982;2023-09-07T06:55:06;100502.34;;;21.40;59.76
36234;BME280;43467;50.890;5.982;2023-09-07T06:57:32;100496.09;;;21.39;59.84
36234;BME280;43467;50.890;5.982;2023-09-07T06:59:59;100494.84;;;21.43;59.55
36234;BME280;43467;50.890;5.982;2023-09-07T07:02:24;100505.34;;;21.46;59.55
36234;BME280;43467;50.890;5.982;2023-09-07T07:04:50;100503.25;;;21.50;59.52
36234;BME280;43467;50.890;5.982;2023-09-07T07:07:16;100514.47;;;21.55;59.65
36234;BME280;43467;50.890;5.982;2023-09-07T07:09:41;100497.34;;;21.56;59.89
36234;BME280;43467;50.890;5.982;2023-09-07T07:12:07;100504.75;;;21.63;59.88
36234;BME280;43467;50.890;5.982;2023-09-07T07:14:32;100511.19;;;21.72;59.68
36234;BME280;43467;50.890;5.982;2023-09-07T07:16:57;100509.47;;;21.80;59.37
36234;BME280;43467;50.890;5.982;2023-09-07T07:19:23;100515.91;;;21.89;59.15
36234;BME280;43467;50.890;5.982;2023-09-07T07:21:49;100509.53;;;21.90;59.12
36234;BME280;43467;50.890;5.982;2023-09-07T07:24:15;100518.69;;;21.99;58.93
36234;BME280;43467;50.890;5.982;2023-09-07T07:26:41;100516.03;;;22.08;58.81
36234;BME280;43467;50.890;5.982;2023-09-07T07:29:06;100507.09;;;22.08;58.82
36234;BME280;43467;50.890;5.982;2023-09-07T07:31:32;100515.06;;;22.19;58.57
36234;BME280;43467;50.890;5.982;2023-09-07T07:33:57;100520.63;;;22.27;58.72
36234;BME280;43467;50.890;5.982;2023-09-07T07:36:23;100524.47;;;22.34;58.09
36234;BME280;43467;50.890;5.982;2023-09-07T07:38:49;100524.50;;;22.44;57.68
36234;BME280;43467;50.890;5.982;2023-09-07T07:41:14;100530.19;;;22.50;57.54
36234;BME280;43467;50.890;5.982;2023-09-07T07:43:39;100522.41;;;22.57;57.33
36234;BME280;43467;50.890;5.982;2023-09-07T07:46:05;100531.66;;;22.64;57.96
36234;BME280;43467;50.890;5.982;2023-09-07T07:48:30;100527.81;;;22.66;57.67
36234;BME280;43467;50.890;5.982;2023-09-07T07:50:56;100532.97;;;22.69;57.69
36234;BME280;43467;50.890;5.982;2023-09-07T07:53:21;100530.84;;;22.73;57.36
36234;BME280;43467;50.890;5.982;2023-09-07T07:55:46;100531.56;;;22.75;57.39
36234;BME280;43467;50.890;5.982;2023-09-07T07:58:13;100523.03;;;22.80;57.71
36234;BME280;43467;50.890;5.982;2023-09-07T08:00:39;100523.34;;;22.86;57.84
36234;BME280;43467;50.890;5.982;2023-09-07T08:03:13;100518.09;;;22.94;57.25
36234;BME280;43467;50.890;5.982;2023-09-07T08:05:38;100503.84;;;22.92;57.27
36234;BME280;43467;50.890;5.982;2023-09-07T08:08:05;100514.81;;;23.10;56.94
36234;BME280;43467;50.890;5.982;2023-09-07T08:10:33;100507.69;;;23.19;56.96
36234;BME280;43467;50.890;5.982;2023-09-07T08:12:59;100507.66;;;23.28;57.03
36234;BME280;43467;50.890;5.982;2023-09-07T08:15:25;100504.69;;;23.31;56.97
36234;BME280;43467;50.890;5.982;2023-09-07T08:17:51;100500.69;;;23.35;56.64
36234;BME280;43467;50.890;5.982;2023-09-07T08:20:17;100510.66;;;23.44;56.19
36234;BME280;43467;50.890;5.982;2023-09-07T08:22:42;100498.84;;;23.45;55.67
36234;BME280;43467;50.890;5.982;2023-09-07T08:25:08;100500.69;;;23.54;55.53
36234;BME280;43467;50.890;5.982;2023-09-07T08:27:34;100495.28;;;23.54;55.63
36234;BME280;43467;50.890;5.982;2023-09-07T08:29:59;100498.22;;;23.61;55.56
36234;BME280;43467;50.890;5.982;2023-09-07T08:32:25;100500.19;;;23.69;55.38
36234;BME280;43467;50.890;5.982;2023-09-07T08:34:50;100493.94;;;23.68;55.14
36234;BME280;43467;50.890;5.982;2023-09-07T08:37:17;100497.47;;;23.78;54.82
36234;BME280;43467;50.890;5.982;2023-09-07T08:39:45;100497.16;;;23.81;55.15
36234;BME280;43467;50.890;5.982;2023-09-07T08:42:11;100505.16;;;23.83;54.98
36234;BME280;43467;50.890;5.982;2023-09-07T08:44:38;100500.97;;;23.88;55.71
36234;BME280;43467;50.890;5.982;2023-09-07T08:47:05;100495.56;;;23.88;55.08
36234;BME280;43467;50.890;5.982;2023-09-07T08:49:32;100506.66;;;23.95;55.26
36234;BME280;43467;50.890;5.982;2023-09-07T08:51:59;100508.19;;;23.97;54.97
36234;BME280;43467;50.890;5.982;2023-09-07T08:54:25;100498.97;;;24.00;55.21
36234;BME280;43467;50.890;5.982;2023-09-07T08:56:51;100487.81;;;24.03;55.17
36234;BME280;43467;50.890;5.982;2023-09-07T08:59:16;100495.63;;;24.06;54.82
36234;BME280;43467;50.890;5.982;2023-09-07T09:01:41;100503.44;;;24.09;55.28
36234;BME280;43467;50.890;5.982;2023-09-07T09:04:07;100498.75;;;24.11;55.36
36234;BME280;43467;50.890;5.982;2023-09-07T09:06:33;100495.00;;;24.22;55.32
36234;BME280;43467;50.890;5.982;2023-09-07T09:08:59;100494.97;;;24.31;54.98
36234;BME280;43467;50.890;5.982;2023-09-07T09:11:26;100484.81;;;24.33;54.48
36234;BME280;43467;50.890;5.982;2023-09-07T09:13:53;100490.31;;;24.41;54.63
36234;BME280;43467;50.890;5.982;2023-09-07T09:16:20;100484.31;;;24.47;54.53
36234;BME280;43467;50.890;5.982;2023-09-07T09:18:55;100485.72;;;24.51;54.40
36234;BME280;43467;50.890;5.982;2023-09-07T09:21:22;100481.84;;;24.54;54.08
36234;BME280;43467;50.890;5.982;2023-09-07T09:23:52;100474.75;;;24.53;53.94
36234;BME280;43467;50.890;5.982;2023-09-07T09:26:18;100481.69;;;24.56;54.27
36234;BME280;43467;50.890;5.982;2023-09-07T09:28:44;100477.81;;;24.58;54.59
36234;BME280;43467;50.890;5.982;2023-09-07T09:31:13;100471.66;;;24.66;54.57
36234;BME280;43467;50.890;5.982;2023-09-07T09:33:40;100467.94;;;24.67;54.56
36234;BME280;43467;50.890;5.982;2023-09-07T09:36:07;100466.47;;;24.72;54.46
36234;BME280;43467;50.890;5.982;2023-09-07T09:38:33;100466.00;;;24.77;54.23
36234;BME280;43467;50.890;5.982;2023-09-07T09:40:59;100467.06;;;24.84;54.09
36234;BME280;43467;50.890;5.982;2023-09-07T09:43:26;100458.53;;;24.88;54.65
36234;BME280;43467;50.890;5.982;2023-09-07T09:45:52;100466.72;;;24.96;54.71
36234;BME280;43467;50.890;5.982;2023-09-07T09:48:19;100472.00;;;24.98;54.58
36234;BME280;43467;50.890;5.982;2023-09-07T09:50:49;100467.63;;;25.05;54.13
36234;BME280;43467;50.890;5.982;2023-09-07T09:53:16;100466.13;;;25.11;54.66
36234;BME280;43467;50.890;5.982;2023-09-07T09:55:53;100455.16;;;25.12;54.11
36234;BME280;43467;50.890;5.982;2023-09-07T09:58:18;100463.13;;;25.14;54.78
36234;BME280;43467;50.890;5.982;2023-09-07T10:00:45;100460.97;;;25.17;54.55
36234;BME280;43467;50.890;5.982;2023-09-07T10:05:45;100453.88;;;25.24;54.58
36234;BME280;43467;50.890;5.982;2023-09-07T10:08:16;100448.31;;;25.26;54.43
36234;BME280;43467;50.890;5.982;2023-09-07T10:10:43;100449.00;;;25.28;55.06
36234;BME280;43467;50.890;5.982;2023-09-07T10:13:08;100443.75;;;25.26;54.29
36234;BME280;43467;50.890;5.982;2023-09-07T10:15:34;100447.00;;;25.30;54.25
36234;BME280;43467;50.890;5.982;2023-09-07T10:18:10;100443.44;;;25.29;54.49
36234;BME280;43467;50.890;5.982;2023-09-07T10:20:58;100426.16;;;25.30;54.08
36234;BME280;43467;50.890;5.982;2023-09-07T10:23:44;100431.59;;;25.30;54.62
36234;BME280;43467;50.890;5.982;2023-09-07T10:26:17;100432.25;;;25.32;54.65
36234;BME280;43467;50.890;5.982;2023-09-07T10:28:44;100428.53;;;25.33;54.88
36234;BME280;43467;50.890;5.982;2023-09-07T10:31:15;100430.94;;;25.36;55.34
36234;BME280;43467;50.890;5.982;2023-09-07T10:33:41;100424.34;;;25.39;55.31
36234;BME280;43467;50.890;5.982;2023-09-07T10:36:06;100429.81;;;25.47;55.03
36234;BME280;43467;50.890;5.982;2023-09-07T10:38:33;100413.78;;;25.54;55.22
36234;BME280;43467;50.890;5.982;2023-09-07T10:41:03;100413.97;;;25.60;55.29
36234;BME280;43467;50.890;5.982;2023-09-07T10:43:30;100417.06;;;25.65;55.06
36234;BME280;43467;50.890;5.982;2023-09-07T10:45:58;100411.13;;;25.62;54.32
36234;BME280;43467;50.890;5.982;2023-09-07T10:48:30;100402.59;;;25.57;54.48
36234;BME280;43467;50.890;5.982;2023-09-07T10:50:56;100412.00;;;25.70;54.44
36234;BME280;43467;50.890;5.982;2023-09-07T10:53:32;100407.25;;;25.72;53.85
36234;BME280;43467;50.890;5.982;2023-09-07T10:55:59;100405.25;;;25.74;54.29
36234;BME280;43467;50.890;5.982;2023-09-07T10:58:36;100398.16;;;25.81;54.73
36234;BME280;43467;50.890;5.982;2023-09-07T11:01:05;100395.09;;;25.84;54.44
36234;BME280;43467;50.890;5.982;2023-09-07T11:03:30;100398.03;;;25.91;54.20
36234;BME280;43467;50.890;5.982;2023-09-07T11:06:03;100384.97;;;25.95;54.44
36234;BME280;43467;50.890;5.982;2023-09-07T11:08:29;100390.91;;;25.98;53.45
36234;BME280;43467;50.890;5.982;2023-09-07T11:10:55;100391.28;;;26.03;54.09
36234;BME280;43467;50.890;5.982;2023-09-07T11:13:23;100392.47;;;26.09;54.26
36234;BME280;43467;50.890;5.982;2023-09-07T11:15:49;100396.03;;;26.17;54.07
36234;BME280;43467;50.890;5.982;2023-09-07T11:18:19;100384.53;;;26.15;53.53
36234;BME280;43467;50.890;5.982;2023-09-07T11:20:46;100392.31;;;26.18;53.55
36234;BME280;43467;50.890;5.982;2023-09-07T11:23:11;100383.56;;;26.24;53.98
36234;BME280;43467;50.890;5.982;2023-09-07T11:25:38;100376.09;;;26.26;53.41
36234;BME280;43467;50.890;5.982;2023-09-07T11:28:05;100390.38;;;26.37;53.47
36234;BME280;43467;50.890;5.982;2023-09-07T11:30:34;100370.31;;;26.38;52.99
36234;BME280;43467;50.890;5.982;2023-09-07T11:33:05;100375.94;;;26.44;52.96
36234;BME280;43467;50.890;5.982;2023-09-07T11:35:31;100373.56;;;26.49;53.47
36234;BME280;43467;50.890;5.982;2023-09-07T11:37:59;100380.88;;;26.57;53.32
36234;BME280;43467;50.890;5.982;2023-09-07T11:40:24;100368.66;;;26.61;53.61
36234;BME280;43467;50.890;5.982;2023-09-07T11:42:50;100367.81;;;26.68;54.12
36234;BME280;43467;50.890;5.982;2023-09-07T11:45:15;100365.44;;;26.73;53.11
36234;BME280;43467;50.890;5.982;2023-09-07T11:47:40;100366.25;;;26.74;53.21
36234;BME280;43467;50.890;5.982;2023-09-07T11:50:07;100368.97;;;26.82;52.57
36234;BME280;43467;50.890;5.982;2023-09-07T11:52:32;100359.69;;;26.85;51.94
36234;BME280;43467;50.890;5.982;2023-09-07T11:54:58;100362.53;;;26.91;51.28
36234;BME280;43467;50.890;5.982;2023-09-07T11:57:23;100358.47;;;26.95;51.96
36234;BME280;43467;50.890;5.982;2023-09-07T11:59:50;100356.75;;;26.94;50.83
36234;BME280;43467;50.890;5.982;2023-09-07T12:02:15;100358.44;;;27.03;51.42
36234;BME280;43467;50.890;5.982;2023-09-07T12:04:43;100362.16;;;27.10;51.15
36234;BME280;43467;50.890;5.982;2023-09-07T12:07:08;100366.06;;;27.16;50.46
36234;BME280;43467;50.890;5.982;2023-09-07T12:09:33;100359.97;;;27.22;50.92
36234;BME280;43467;50.890;5.982;2023-09-07T12:12:00;100364.53;;;27.30;50.45
36234;BME280;43467;50.890;5.982;2023-09-07T12:14:26;100361.78;;;27.38;50.74
36234;BME280;43467;50.890;5.982;2023-09-07T12:16:51;100362.59;;;27.46;50.42
36234;BME280;43467;50.890;5.982;2023-09-07T12:19:16;100368.69;;;27.56;50.34
36234;BME280;43467;50.890;5.982;2023-09-07T12:21:42;100363.41;;;27.63;50.08
36234;BME280;43467;50.890;5.982;2023-09-07T12:24:08;100358.28;;;27.68;48.66
36234;BME280;43467;50.890;5.982;2023-09-07T12:26:33;100365.53;;;27.76;49.03
36234;BME280;43467;50.890;5.982;2023-09-07T12:28:59;100357.91;;;27.79;48.77
36234;BME280;43467;50.890;5.982;2023-09-07T12:31:25;100358.50;;;27.89;48.38
36234;BME280;43467;50.890;5.982;2023-09-07T12:33:50;100343.53;;;27.93;48.09
36234;BME280;43467;50.890;5.982;2023-09-07T12:36:17;100336.16;;;28.02;48.46
36234;BME280;43467;50.890;5.982;2023-09-07T12:38:42;100341.72;;;28.08;47.90
36234;BME280;43467;50.890;5.982;2023-09-07T12:41:08;100339.53;;;28.12;46.96
36234;BME280;43467;50.890;5.982;2023-09-07T12:43:33;100341.91;;;28.15;47.30
36234;BME280;43467;50.890;5.982;2023-09-07T12:45:59;100345.41;;;28.24;47.66
36234;BME280;43467;50.890;5.982;2023-09-07T12:48:24;100342.25;;;28.35;48.46